createdAt,value
2023-02-14T00:00:13.247Z,40.92
2023-02-14T00:02:42.359Z,43.10
2023-02-14T00:05:11.743Z,45.63
2023-02-14T00:07:40.933Z,42.38
2023-02-14T00:10:10.690Z,42.25
2023-02-14T00:12:39.801Z,46.45
2023-02-14T00:15:33.480Z,45.85
2023-02-14T00:18:03.908Z,46.42
2023-02-14T00:20:33.037Z,48.57
2023-02-14T00:23:02.189Z,41.40
2023-02-14T00:25:31.288Z,46.78
2023-02-14T00:28:00.328Z,43.72
2023-02-14T00:30:31.105Z,43.65
2023-02-14T00:33:00.636Z,37.88
2023-02-14T00:35:31.336Z,42.70
2023-02-14T00:38:00.440Z,39.90
2023-02-14T00:40:30.173Z,45.80
2023-02-14T00:42:59.523Z,41.45
2023-02-14T00:45:28.651Z,49.92
2023-02-14T00:47:57.863Z,42.67
2023-02-14T00:50:26.963Z,40.42
2023-02-14T00:52:57.467Z,43.72
2023-02-14T00:55:26.603Z,50.58
2023-02-14T00:57:55.742Z,39.75
2023-02-14T01:00:25.459Z,44.28
2023-02-14T01:02:57.824Z,39.88
2023-02-14T01:05:27.229Z,47.40
2023-02-14T01:07:57.722Z,49.75
2023-02-14T01:10:27.116Z,45.85
2023-02-14T01:12:56.405Z,44.90
2023-02-14T01:15:25.577Z,58.42
2023-02-14T01:17:54.966Z,44.20
2023-02-14T01:20:24.230Z,43.13
2023-02-14T01:22:54.758Z,48.67
2023-02-14T01:25:25.709Z,45.97
2023-02-14T01:27:54.926Z,45.85
2023-02-14T01:30:24.165Z,46.42
2023-02-14T01:32:53.669Z,51.50
2023-02-14T01:35:23.535Z,46.85
2023-02-14T01:37:53.350Z,51.08
2023-02-14T01:40:22.685Z,49.53
2023-02-14T01:42:53.234Z,47.83
2023-02-14T01:45:26.903Z,48.50
2023-02-14T01:47:58.797Z,52.97
2023-02-14T01:50:33.884Z,45.35
2023-02-14T01:53:05.573Z,51.85
2023-02-14T01:55:38.621Z,51.10
2023-02-14T01:58:13.106Z,55.92
2023-02-14T02:00:58.713Z,51.25
2023-02-14T02:03:32.185Z,55.17
2023-02-14T02:06:09.875Z,54.72
2023-02-14T02:08:43.255Z,52.67
2023-02-14T02:11:12.349Z,52.67
2023-02-14T02:13:42.998Z,55.10
2023-02-14T02:18:59.568Z,58.33
2023-02-14T02:22:05.724Z,53.80
2023-02-14T02:24:40.306Z,52.20
2023-02-14T02:27:33.220Z,50.90
2023-02-14T02:30:37.822Z,53.35
2023-02-14T02:33:50.097Z,55.97
2023-02-14T02:36:49.309Z,46.92
2023-02-14T02:39:31.251Z,53.55
2023-02-14T02:42:08.079Z,47.63
2023-02-14T02:44:46.753Z,42.88
2023-02-14T02:47:22.584Z,54.10
2023-02-14T02:50:17.648Z,47.83
2023-02-14T02:53:06.416Z,48.97
2023-02-14T02:56:16.552Z,48.90
2023-02-14T02:58:53.129Z,48.63
2023-02-14T03:01:28.273Z,53.35
2023-02-14T03:04:19.419Z,49.90
2023-02-14T03:06:49.436Z,49.17
2023-02-14T03:09:54.083Z,53.67
2023-02-14T03:13:03.859Z,52.65
2023-02-14T03:15:44.522Z,49.38
2023-02-14T03:18:46.351Z,53.80
2023-02-14T03:21:23.000Z,55.20
2023-02-14T03:23:57.976Z,51.67
2023-02-14T03:26:36.323Z,53.85
2023-02-14T03:29:14.171Z,51.38
2023-02-14T03:31:52.058Z,65.28
2023-02-14T03:34:29.633Z,55.35
2023-02-14T03:37:04.566Z,59.25
2023-02-14T03:39:40.998Z,55.15
2023-02-14T03:42:17.904Z,58.08
2023-02-14T03:44:49.820Z,54.13
2023-02-14T03:47:22.124Z,53.45
2023-02-14T03:49:58.063Z,58.78
2023-02-14T03:52:28.811Z,59.28
2023-02-14T03:55:00.758Z,59.15
2023-02-14T03:57:36.523Z,53.45
2023-02-14T04:00:07.123Z,55.55
2023-02-14T04:02:46.682Z,55.85
2023-02-14T04:05:19.802Z,54.38
2023-02-14T04:07:51.631Z,54.42
2023-02-14T04:10:21.885Z,56.42
2023-02-14T04:12:52.663Z,50.75
2023-02-14T04:15:21.930Z,54.97
2023-02-14T04:18:08.584Z,56.28
2023-02-14T04:20:38.259Z,51.17
2023-02-14T04:23:07.416Z,48.40
2023-02-14T04:25:36.504Z,48.92
2023-02-14T04:28:07.180Z,49.38
2023-02-14T04:30:36.275Z,51.10
2023-02-14T04:33:05.940Z,48.60
2023-02-14T04:35:35.397Z,51.10
2023-02-14T04:38:05.852Z,52.65
2023-02-14T04:40:34.938Z,43.63
2023-02-14T04:43:04.704Z,45.72
2023-02-14T04:45:35.511Z,56.72
2023-02-14T04:48:04.784Z,50.65
2023-02-14T04:50:33.878Z,55.25
2023-02-14T04:53:03.071Z,49.58
2023-02-14T04:55:32.492Z,47.58
2023-02-14T04:58:01.530Z,49.08
2023-02-14T05:00:30.676Z,48.65
2023-02-14T05:03:01.243Z,46.10
2023-02-14T05:05:30.365Z,43.28
2023-02-14T05:07:59.400Z,44.65
2023-02-14T05:10:29.336Z,47.30
2023-02-14T05:12:58.399Z,52.42
2023-02-14T05:15:27.440Z,49.72
2023-02-14T05:17:59.902Z,53.25
2023-02-14T05:20:30.756Z,50.47
2023-02-14T05:23:03.324Z,48.42
2023-02-14T05:25:32.719Z,54.15
2023-02-14T05:28:01.835Z,48.85
2023-02-14T05:30:31.096Z,50.40
2023-02-14T05:33:00.435Z,56.92
2023-02-14T05:35:31.055Z,53.47
2023-02-14T05:38:00.312Z,56.40
2023-02-14T05:40:29.908Z,57.50
2023-02-14T05:42:59.142Z,53.58
2023-02-14T05:45:28.235Z,55.92
2023-02-14T05:47:57.640Z,56.25
2023-02-14T05:50:26.779Z,57.03
2023-02-14T05:52:58.362Z,54.72
2023-02-14T05:55:27.494Z,50.88
2023-02-14T05:57:56.661Z,54.90
2023-02-14T06:00:26.296Z,53.75
2023-02-14T06:02:55.398Z,59.65
2023-02-14T06:05:24.521Z,58.50
2023-02-14T06:07:53.777Z,53.65
2023-02-14T06:10:26.696Z,52.10
2023-02-14T06:12:56.464Z,57.92
2023-02-14T06:15:25.926Z,64.30
2023-02-14T06:17:56.335Z,60.75
2023-02-14T06:20:26.029Z,50.77
2023-02-14T06:22:55.895Z,49.60
2023-02-14T06:25:26.669Z,57.75
2023-02-14T06:27:58.201Z,50.80
2023-02-14T06:30:28.045Z,51.67
2023-02-14T06:32:57.545Z,58.13
2023-02-14T06:35:26.673Z,51.30
2023-02-14T06:37:55.827Z,59.30
2023-02-14T06:40:26.347Z,49.47
2023-02-14T06:42:55.523Z,48.33
2023-02-14T06:45:24.573Z,48.90
2023-02-14T06:47:53.667Z,52.17
2023-02-14T06:50:22.928Z,53.25
2023-02-14T06:52:52.050Z,50.47
2023-02-14T06:55:21.243Z,53.15
2023-02-14T06:57:51.834Z,61.45
2023-02-14T07:00:22.244Z,56.78
2023-02-14T07:02:51.741Z,49.90
2023-02-14T07:05:22.293Z,49.88
2023-02-14T07:07:51.844Z,43.13
2023-02-14T07:10:21.637Z,43.88
2023-02-14T07:12:52.882Z,35.33
2023-02-14T07:17:50.975Z,38.53
2023-02-14T07:20:20.639Z,36.85
2023-02-14T07:22:49.853Z,42.28
2023-02-14T07:25:19.294Z,42.90
2023-02-14T07:27:49.014Z,38.67
2023-02-14T07:30:20.033Z,41.35
2023-02-14T07:32:49.253Z,38.15
2023-02-14T07:35:18.427Z,42.83
2023-02-14T07:37:47.706Z,41.35
2023-02-14T07:40:17.078Z,44.60
2023-02-14T07:42:47.076Z,52.67
2023-02-14T07:45:21.771Z,51.33
2023-02-14T07:47:54.859Z,47.10
2023-02-14T07:50:24.808Z,48.97
2023-02-14T07:52:55.195Z,48.28
2023-02-14T07:55:25.228Z,55.97
2023-02-14T07:57:54.316Z,49.95
2023-02-14T08:00:24.123Z,49.03
2023-02-14T08:02:56.184Z,46.28
2023-02-14T08:05:25.424Z,43.75
2023-02-14T08:07:54.567Z,41.72
2023-02-14T08:10:23.684Z,44.17
2023-02-14T08:13:02.104Z,51.20
2023-02-14T08:15:51.023Z,59.15
2023-02-14T08:18:23.335Z,54.60
2023-02-14T08:20:53.039Z,47.15
2023-02-14T08:23:22.539Z,53.33
2023-02-14T08:25:53.204Z,54.20
2023-02-14T08:28:22.800Z,56.85
2023-02-14T08:30:53.406Z,50.00
2023-02-14T08:33:24.706Z,41.00
2023-02-14T08:35:54.565Z,51.33
2023-02-14T08:38:24.191Z,51.60
2023-02-14T08:40:53.736Z,47.28
2023-02-14T08:43:23.393Z,50.97
2023-02-14T08:45:54.586Z,53.28
2023-02-14T08:48:27.019Z,60.67
2023-02-14T08:50:56.361Z,45.67
2023-02-14T08:53:26.346Z,41.95
2023-02-14T08:55:55.978Z,42.50
2023-02-14T08:58:25.572Z,41.35
2023-02-14T09:00:55.863Z,37.58
2023-02-14T09:03:26.670Z,37.22
2023-02-14T09:05:56.593Z,34.08
2023-02-14T09:08:25.833Z,30.25
2023-02-14T09:10:55.005Z,33.17
2023-02-14T09:13:24.734Z,39.53
2023-02-14T09:15:53.853Z,37.50
2023-02-14T09:18:23.182Z,38.30
2023-02-14T09:20:55.018Z,44.63
2023-02-14T09:23:24.318Z,42.97
2023-02-14T09:25:53.651Z,45.72
2023-02-14T09:28:24.796Z,44.90
2023-02-14T09:30:54.649Z,50.53
2023-02-14T09:33:24.460Z,51.67
2023-02-14T09:35:55.663Z,48.58
2023-02-14T09:38:24.928Z,43.95
2023-02-14T09:40:54.426Z,49.10
2023-02-14T09:43:32.428Z,44.72
2023-02-14T09:46:03.708Z,41.05
2023-02-14T09:51:10.050Z,44.55
2023-02-14T09:53:45.504Z,53.20
2023-02-14T09:56:22.227Z,48.70
2023-02-14T09:58:56.104Z,48.60
2023-02-14T10:01:29.785Z,41.35
2023-02-14T10:04:22.699Z,51.92
2023-02-14T10:06:59.919Z,45.17
2023-02-14T10:09:51.352Z,47.20
2023-02-14T10:12:25.447Z,40.08
2023-02-14T10:15:00.304Z,47.10
2023-02-14T10:17:40.558Z,45.63
2023-02-14T10:20:22.070Z,46.03
2023-02-14T10:23:01.784Z,52.90
2023-02-14T10:25:38.384Z,47.60
2023-02-14T10:28:12.632Z,35.13
2023-02-14T10:30:52.894Z,38.83
2023-02-14T10:33:23.729Z,41.88
2023-02-14T10:35:58.515Z,40.95
2023-02-14T10:38:40.912Z,40.75
2023-02-14T10:41:25.957Z,49.85
2023-02-14T10:44:01.498Z,39.95
2023-02-14T10:46:40.954Z,50.75
2023-02-14T10:49:28.784Z,40.95
2023-02-14T10:52:04.351Z,37.75
2023-02-14T10:54:40.059Z,40.30
2023-02-14T10:57:16.027Z,37.28
2023-02-14T10:59:53.434Z,41.90
2023-02-14T11:02:27.072Z,37.75
2023-02-14T11:05:00.341Z,27.23
2023-02-14T11:07:29.865Z,33.78
2023-02-14T11:10:03.490Z,31.70
2023-02-14T11:12:39.113Z,27.05
2023-02-14T11:15:24.367Z,25.67
2023-02-14T11:18:11.381Z,21.77
2023-02-14T11:20:40.751Z,16.20
2023-02-14T11:23:21.183Z,23.23
2023-02-14T11:25:56.788Z,22.83
2023-02-14T11:28:25.975Z,27.38
2023-02-14T11:30:55.806Z,21.05
2023-02-14T11:33:38.561Z,28.42
2023-02-14T11:36:13.389Z,24.77
2023-02-14T11:38:43.046Z,27.10
2023-02-14T11:41:26.355Z,26.70
2023-02-14T11:44:15.687Z,26.00
2023-02-14T11:46:53.128Z,25.00
2023-02-14T11:49:29.673Z,25.48
2023-02-14T11:52:01.003Z,24.58
2023-02-14T11:57:10.570Z,20.85
2023-02-14T11:59:43.643Z,32.80
2023-02-14T12:02:24.491Z,25.45
2023-02-14T12:04:57.323Z,20.92
2023-02-14T12:07:32.974Z,34.00
2023-02-14T12:10:27.537Z,33.25
2023-02-14T12:13:01.886Z,34.08
2023-02-14T12:15:38.142Z,28.08
2023-02-14T12:18:45.221Z,33.00
2023-02-14T12:21:35.072Z,22.80
2023-02-14T12:24:14.055Z,25.33
2023-02-14T12:26:48.109Z,27.55
2023-02-14T12:29:26.364Z,32.85
2023-02-14T12:32:00.397Z,32.05
2023-02-14T12:34:29.952Z,33.20
2023-02-14T12:37:21.137Z,29.58
2023-02-14T12:40:02.679Z,34.25
2023-02-14T12:42:54.717Z,32.88
2023-02-14T12:45:34.702Z,30.70
2023-02-14T12:48:17.532Z,30.13
2023-02-14T12:50:51.348Z,33.42
2023-02-14T12:53:51.007Z,36.40
2023-02-14T12:56:29.734Z,40.28
2023-02-14T12:59:10.834Z,33.08
2023-02-14T13:02:18.865Z,33.03
2023-02-14T13:04:58.629Z,33.40
2023-02-14T13:07:48.721Z,33.80
2023-02-14T13:10:31.324Z,33.70
2023-02-14T13:13:07.902Z,33.50
2023-02-14T13:15:48.285Z,30.98
2023-02-14T13:18:25.892Z,33.85
2023-02-14T13:20:56.953Z,34.35
2023-02-14T13:23:31.657Z,47.40
2023-02-14T13:26:05.529Z,38.47
2023-02-14T13:28:37.569Z,41.65
2023-02-14T13:31:06.940Z,33.03
2023-02-14T13:33:40.546Z,37.03
2023-02-14T13:36:12.388Z,33.00
2023-02-14T13:38:46.766Z,32.80
2023-02-14T13:41:17.641Z,42.70
2023-02-14T13:43:48.513Z,25.15
2023-02-14T13:46:21.185Z,25.13
2023-02-14T13:49:18.883Z,29.00
2023-02-14T13:51:49.611Z,32.92
2023-02-14T13:54:29.454Z,33.55
2023-02-14T13:56:59.799Z,22.48
2023-02-14T13:59:31.737Z,31.42
2023-02-14T14:02:32.941Z,29.30
2023-02-14T14:05:42.981Z,30.80
2023-02-14T14:08:33.906Z,27.83
2023-02-14T14:11:05.153Z,23.67
2023-02-14T14:14:01.708Z,24.80
2023-02-14T14:16:33.467Z,29.55
2023-02-14T14:19:05.781Z,29.35
2023-02-14T14:21:39.439Z,24.55
2023-02-14T14:24:23.545Z,27.40
2023-02-14T14:26:59.161Z,29.48
2023-02-14T14:29:31.841Z,28.58
2023-02-14T14:32:01.217Z,31.63
2023-02-14T14:34:30.537Z,29.35
2023-02-14T14:37:06.076Z,34.72
2023-02-14T14:39:39.953Z,30.35
2023-02-14T14:42:13.900Z,26.75
2023-02-14T14:44:49.812Z,24.88
2023-02-14T14:47:24.475Z,32.75
2023-02-14T14:49:56.012Z,24.58
2023-02-14T14:52:33.196Z,25.48
2023-02-14T14:55:04.357Z,25.50
2023-02-14T14:57:33.597Z,25.33
2023-02-14T15:00:27.272Z,28.52
2023-02-14T15:03:02.077Z,30.10
2023-02-14T15:05:34.013Z,23.05
2023-02-14T15:08:23.204Z,27.90
2023-02-14T15:10:55.876Z,25.25
2023-02-14T15:13:51.027Z,25.52
2023-02-14T15:16:23.351Z,30.80
2023-02-14T15:18:55.628Z,25.48
2023-02-14T15:21:25.015Z,30.08
2023-02-14T15:23:56.073Z,25.17
2023-02-14T15:26:29.687Z,24.48
2023-02-14T15:29:02.424Z,28.52
2023-02-14T15:31:34.647Z,27.17
2023-02-14T15:34:05.122Z,24.65
2023-02-14T15:36:36.128Z,33.47
2023-02-14T15:39:09.635Z,22.40
2023-02-14T15:41:44.841Z,28.55
2023-02-14T15:44:21.149Z,19.20
2023-02-14T15:46:55.349Z,26.98
2023-02-14T15:49:31.255Z,24.73
2023-02-14T15:52:03.865Z,20.63
2023-02-14T15:54:39.066Z,28.00
2023-02-14T15:57:17.775Z,25.30
2023-02-14T15:59:47.425Z,23.20
2023-02-14T16:02:28.277Z,26.33
2023-02-14T16:05:05.361Z,25.38
2023-02-14T16:07:34.495Z,21.23
2023-02-14T16:10:24.072Z,23.90
2023-02-14T16:12:59.313Z,27.10
2023-02-14T16:15:30.494Z,20.90
2023-02-14T16:17:59.936Z,24.45
2023-02-14T16:20:47.060Z,27.98
2023-02-14T16:23:25.557Z,24.67
2023-02-14T16:25:57.498Z,25.58
2023-02-14T16:28:31.088Z,32.17
2023-02-14T16:31:02.921Z,24.98
2023-02-14T16:33:35.230Z,30.73
2023-02-14T16:36:09.408Z,26.40
2023-02-14T16:38:43.870Z,26.70
2023-02-14T16:41:22.315Z,23.30
2023-02-14T16:43:51.875Z,31.33
2023-02-14T16:46:22.971Z,24.25
2023-02-14T16:48:52.980Z,19.88
2023-02-14T16:51:24.517Z,20.58
2023-02-14T16:53:54.925Z,21.20
2023-02-14T16:56:29.372Z,29.33
2023-02-14T16:58:58.857Z,28.52
2023-02-14T17:01:27.977Z,28.83
2023-02-14T17:03:57.105Z,27.17
2023-02-14T17:06:28.654Z,28.02
2023-02-14T17:08:59.785Z,30.05
2023-02-14T17:11:33.619Z,23.67
2023-02-14T17:14:02.717Z,24.98
2023-02-14T17:16:32.830Z,25.85
2023-02-14T17:19:04.170Z,32.60
2023-02-14T17:24:03.790Z,28.75
2023-02-14T17:26:34.178Z,25.67
2023-02-14T17:29:03.322Z,23.67
2023-02-14T17:31:32.717Z,31.45
2023-02-14T17:34:01.928Z,29.98
2023-02-14T17:36:32.621Z,27.45
2023-02-14T17:39:03.371Z,25.80
2023-02-14T17:41:33.935Z,26.67
2023-02-14T17:44:03.048Z,24.02
2023-02-14T17:46:32.932Z,31.73
2023-02-14T17:49:02.726Z,24.02
2023-02-14T17:51:31.733Z,28.55
2023-02-14T17:54:00.998Z,27.92
2023-02-14T17:56:30.220Z,37.50
2023-02-14T17:59:00.999Z,65.38
2023-02-14T18:01:34.530Z,45.85
2023-02-14T18:04:05.730Z,38.33
2023-02-14T18:06:34.885Z,38.58
2023-02-14T18:09:06.869Z,56.97
2023-02-14T18:11:35.977Z,65.50
2023-02-14T18:14:06.386Z,52.63
2023-02-14T18:16:38.074Z,41.90
2023-02-14T18:19:10.107Z,39.85
2023-02-14T18:21:40.288Z,32.55
2023-02-14T18:24:10.407Z,30.50
2023-02-14T18:26:41.106Z,33.13
2023-02-14T18:29:12.771Z,29.23
2023-02-14T18:31:44.202Z,26.58
2023-02-14T18:34:13.525Z,26.83
2023-02-14T18:36:42.979Z,28.40
2023-02-14T18:39:12.348Z,23.85
2023-02-14T18:41:41.627Z,27.33
2023-02-14T18:44:13.711Z,34.42
2023-02-14T18:46:42.827Z,34.30
2023-02-14T18:49:13.698Z,38.17
2023-02-14T18:51:43.749Z,30.13
2023-02-14T18:54:12.772Z,29.58
2023-02-14T18:56:41.836Z,31.23
2023-02-14T18:59:19.073Z,26.85
2023-02-14T19:01:49.244Z,25.83
2023-02-14T19:04:18.419Z,26.85
2023-02-14T19:06:47.500Z,23.13
2023-02-14T19:09:18.738Z,27.77
2023-02-14T19:11:47.894Z,32.58
2023-02-14T19:14:19.790Z,23.75
2023-02-14T19:16:51.160Z,23.88
2023-02-14T19:19:20.688Z,27.40
2023-02-14T19:21:52.144Z,25.80
2023-02-14T19:24:26.354Z,23.38
2023-02-14T19:26:57.030Z,22.90
2023-02-14T19:29:28.650Z,32.15
2023-02-14T19:32:06.899Z,26.00
2023-02-14T19:34:38.494Z,27.90
2023-02-14T19:37:07.660Z,30.70
2023-02-14T19:39:36.691Z,35.40
2023-02-14T19:42:06.370Z,31.40
2023-02-14T19:44:36.874Z,23.55
2023-02-14T19:47:19.233Z,23.50
2023-02-14T19:50:25.623Z,27.55
2023-02-14T19:52:55.773Z,25.45
2023-02-14T19:55:25.054Z,27.27
2023-02-14T19:57:54.277Z,24.90
2023-02-14T20:00:25.396Z,26.70
2023-02-14T20:02:54.501Z,28.20
2023-02-14T20:05:37.001Z,28.63
2023-02-14T20:08:33.673Z,31.85
2023-02-14T20:11:09.752Z,30.13
2023-02-14T20:13:42.977Z,26.40
2023-02-14T20:16:30.197Z,31.58
2023-02-14T20:19:03.169Z,31.65
2023-02-14T20:21:34.639Z,30.65
2023-02-14T20:24:15.292Z,28.58
2023-02-14T20:26:44.481Z,32.80
2023-02-14T20:29:13.608Z,31.50
2023-02-14T20:31:46.021Z,35.53
2023-02-14T20:34:15.609Z,28.45
2023-02-14T20:36:45.534Z,31.08
2023-02-14T20:39:14.780Z,27.38
2023-02-14T20:41:49.870Z,27.33
2023-02-14T20:44:21.770Z,27.13
2023-02-14T20:46:54.204Z,31.25
2023-02-14T20:49:25.431Z,29.95
2023-02-14T20:51:58.255Z,29.50
2023-02-14T20:54:29.212Z,33.55
2023-02-14T20:56:59.049Z,30.35
2023-02-14T20:59:28.995Z,31.08
2023-02-14T21:02:00.421Z,22.40
2023-02-14T21:07:05.139Z,22.45
2023-02-14T21:09:34.579Z,36.17
2023-02-14T21:12:03.995Z,24.35
2023-02-14T21:14:33.221Z,26.90
2023-02-14T21:17:05.553Z,30.83
2023-02-14T21:19:34.661Z,26.25
2023-02-14T21:22:04.348Z,26.42
2023-02-14T21:24:33.654Z,21.33
2023-02-14T21:27:02.728Z,23.67
2023-02-14T21:29:31.822Z,26.80
2023-02-14T21:32:03.400Z,28.00
2023-02-14T21:34:35.435Z,24.88
2023-02-14T21:37:04.603Z,25.55
2023-02-14T21:39:35.825Z,27.50
2023-02-14T21:44:51.099Z,24.17
2023-02-14T21:47:20.317Z,24.90
2023-02-14T21:50:10.761Z,24.42
2023-02-14T21:52:39.921Z,31.38
2023-02-14T21:55:09.650Z,27.50
2023-02-14T21:57:38.975Z,23.98
2023-02-14T22:00:09.327Z,24.23
2023-02-14T22:02:41.593Z,27.42
2023-02-14T22:05:12.178Z,26.75
2023-02-14T22:07:41.297Z,24.63
2023-02-14T22:10:12.962Z,29.67
2023-02-14T22:12:42.071Z,28.60
2023-02-14T22:15:11.394Z,27.65
2023-02-14T22:17:40.655Z,25.98
2023-02-14T22:20:12.189Z,24.40
2023-02-14T22:22:41.250Z,21.90
2023-02-14T22:25:10.371Z,29.02
2023-02-14T22:27:40.671Z,23.17
2023-02-14T22:30:10.514Z,23.40
2023-02-14T22:32:43.328Z,27.38
2023-02-14T22:35:13.774Z,20.27
2023-02-14T22:37:43.222Z,23.13
2023-02-14T22:40:12.789Z,24.92
2023-02-14T22:42:41.958Z,23.08
2023-02-14T22:45:11.470Z,19.75
2023-02-14T22:47:44.932Z,22.33
2023-02-14T22:50:15.532Z,19.35
2023-02-14T22:52:44.857Z,22.20
2023-02-14T22:55:13.976Z,27.70
2023-02-14T22:57:43.174Z,18.38
2023-02-14T23:00:13.090Z,17.70
2023-02-14T23:02:42.416Z,22.33
2023-02-14T23:05:11.546Z,21.48
2023-02-14T23:07:44.945Z,21.58
2023-02-14T23:10:14.130Z,25.38
2023-02-14T23:13:00.943Z,23.85
2023-02-14T23:15:47.815Z,22.00
2023-02-14T23:18:34.370Z,21.77
2023-02-14T23:21:20.924Z,24.83
2023-02-14T23:23:51.495Z,23.42
2023-02-14T23:26:21.032Z,27.08
2023-02-14T23:28:50.211Z,21.13
2023-02-14T23:31:19.866Z,28.65
2023-02-14T23:33:52.172Z,27.38
2023-02-14T23:36:21.309Z,26.90
2023-02-14T23:38:51.968Z,27.95
2023-02-14T23:41:38.533Z,27.05
2023-02-14T23:44:08.244Z,24.20
2023-02-14T23:46:37.390Z,26.67
2023-02-14T23:49:06.877Z,31.38
2023-02-14T23:51:36.550Z,28.40
2023-02-14T23:54:07.434Z,27.13
2023-02-14T23:56:37.401Z,28.65
2023-02-14T23:59:07.227Z,24.55
